Wausau, WI (54401)

4:57 AM CDT on September 20, 2014 (GMT -0500)
6 White Pillars | Change Station
CLOSE
Current Station
Personal Weather Station
Location: Wausau, WI
Elevation: 1381 ft
Nearby Weather Stations

Elev 1381 ft 45.00 °N, 89.60 °W | Updated 46 seconds ago

Overcast
Overcast
64.4 °F
Feels Like 64.4 °F
N
4.0
Wind Variable Wind from WSW
Gusts 5.0 mph

Today
High -- | Low -- °F
--% Chance of Precip.
Yesterday
High -- | Low -- °F
Precip. -- in
6:43 AM 6:59 PM
Waning Crescent, 13% visible
Pressure 29.71 in
Visibility 9.0 miles
Clouds Overcast 1200 ft
Dew Point 62 °F
Humidity 93%
Rainfall 0.00 in
Snow Depth Not available.
UV 0 out of 12
Pollen 4.20 out of 12
Air Quality Not available.
Flu Activity Not available.
METAR KAUW 200854Z AUTO 21012KT 9SM OVC012 18/16 A2971 RMK AO2 SLP060 60000 T01780156 52003

More Conditions Fewer Conditions

Pressure 29.71 in
Visibility 9.0 miles
Clouds Overcast 1200 ft
Dew Point 62 °F
Humidity 93%
Rainfall 0.00 in
Snow Depth Not available.
UV 0 out of 12
Pollen 4.20 out of 12
Air Quality Not available.
Flu Activity Not available.
METAR KAUW 200854Z AUTO 21012KT 9SM OVC012 18/16 A2971 RMK AO2 SLP060 60000 T01780156 52003

More Conditions Fewer Conditions

10-Day Weather Forecast

Almanac

Astronomy

Sep. 20, 2014 Rise Set
Actual Time 6:43 AM CDT 6:59 PM CDT
Civil Twilight 6:13 AM CDT 7:29 PM CDT
Nautical Twilight 5:39 AM CDT 8:03 PM CDT
Astronomical Twilight 5:03 AM CDT 8:39 PM CDT
Moon 3:15 AM CDT 5:09 PM CDT
Length of Visible Light 13h 15m
Length of Day
12h 16m
Tomorrow will be 3m 6s shorter.
Waning Crescent, 13% of the Moon is Illuminated
Today
Waning Crescent
Sep 24
New
Oct 1
First Quarter
Oct 8
Full
Oct 15
Last Quarter

Today's Extremes

State Highs State Lows

Community

WunderPhotos

Upload Photos

1,754,794 photos uploaded!

WunderBlogs® & News

Nearby

Snow Depth

Station Depth Elevation
No new snow has been reported.

Earthquake Activity

City Distance Mag. Time & Date
No recent earthquake activity has been reported nearby.
Minimum magnitude displayed is 2.5.

Coastal Water Temperatures

Place Temperature
No Stations Reporting

Nearby Weather Stations